Time;durP1;ratioP1;P1;durP2;ratioP2;P2;SDS_P1;SDS_P2;PMS_P1;PMS_P2;Temp;Humidity;BMP_temperature;BMP_pressure;BME280_temperature;BME280_humidity;BME280_pressure;Samples;Min_cycle;Max_cycle;Signal;HPM_P1;HPM_P2
2022/11/19 00:00:20;;;;;;;;;;;;;;;5.96;93.57;100733.66;5045166;28;19924;-55
2022/11/19 00:02:45;;;;;;;;;;;;;;;5.91;93.62;100734.06;5045010;28;19917;-55
2022/11/19 00:05:10;;;;;;;;;;;;;;;5.86;93.61;100736.28;5046997;28;19920;-55
2022/11/19 00:07:35;;;;;;;;;;;;;;;5.77;93.41;100730.03;5045716;28;19925;-54
2022/11/19 00:10:01;;;;;;;;;;;;;;;5.71;93.31;100740.31;5047412;28;20003;-56
2022/11/19 00:15:10;;;;;;;;;;;;;;;5.59;93.39;100745.75;5046170;28;19990;-52
2022/11/19 00:17:35;;;;;;;;;;;;;;;5.56;93.49;100743.41;5048793;28;19920;-54
2022/11/19 00:20:00;;;;;;;;;;;;;;;5.55;93.40;100740.91;5048850;28;19967;-58
2022/11/19 00:22:25;;;;;;;;;;;;;;;5.51;93.31;100740.38;5050223;28;19924;-54
2022/11/19 00:24:51;;;;;;;;;;;;;;;5.51;93.54;100752.72;5049817;28;20396;-54
2022/11/19 00:27:16;;;;;;;;;;;;;;;5.50;93.55;100751.06;5050785;28;19917;-52
2022/11/19 00:29:41;;;;;;;;;;;;;;;5.48;93.68;100751.16;5048807;28;19999;-54
2022/11/19 00:32:06;;;;;;;;;;;;;;;5.47;93.69;100754.78;5048790;28;20024;-56
2022/11/19 00:34:31;;;;;;;;;;;;;;;5.46;93.52;100750.47;5048519;28;19925;-54
2022/11/19 00:36:56;;;;;;;;;;;;;;;5.43;93.56;100750.75;5049938;28;19995;-55
2022/11/19 00:39:22;;;;;;;;;;;;;;;5.45;93.77;100748.81;5050102;28;19982;-54
2022/11/19 00:41:47;;;;;;;;;;;;;;;5.49;93.92;100755.50;5049149;28;20011;-55
2022/11/19 00:44:12;;;;;;;;;;;;;;;5.52;94.04;100757.84;5048964;28;19978;-55
2022/11/19 00:46:37;;;;;;;;;;;;;;;5.52;94.31;100755.19;5047657;28;19996;-55
2022/11/19 00:49:03;;;;;;;;;;;;;;;5.50;93.94;100759.78;5049536;28;19925;-56
2022/11/19 00:51:29;;;;;;;;;;;;;;;5.49;93.64;100760.75;5047325;28;19995;-56
2022/11/19 00:53:54;;;;;;;;;;;;;;;5.40;93.60;100745.78;5049673;28;19931;-55
2022/11/19 00:56:20;;;;;;;;;;;;;;;5.42;93.63;100764.88;5048726;28;20016;-56
2022/11/19 00:58:46;;;;;;;;;;;;;;;5.42;93.60;100764.06;5050401;28;19970;-54
2022/11/19 01:01:12;;;;;;;;;;;;;;;5.42;93.65;100771.97;5048916;28;19921;-54
2022/11/19 01:03:38;;;;;;;;;;;;;;;5.41;93.79;100775.56;5049707;28;19917;-54
2022/11/19 01:06:03;;;;;;;;;;;;;;;5.40;93.71;100782.63;5049265;28;19982;-53
2022/11/19 01:08:28;;;;;;;;;;;;;;;5.40;93.77;100779.16;5049525;28;20395;-55
2022/11/19 01:10:54;;;;;;;;;;;;;;;5.40;93.49;100784.44;5048484;28;19920;-56
2022/11/19 01:13:34;;;;;;;;;;;;;;;5.37;93.61;100788.19;5048520;28;21707;-55
2022/11/19 01:16:00;;;;;;;;;;;;;;;5.38;93.61;100781.13;5048992;28;19916;-55
2022/11/19 01:18:26;;;;;;;;;;;;;;;5.36;93.63;100786.53;5049065;28;19921;-55
2022/11/19 01:20:51;;;;;;;;;;;;;;;5.36;93.13;100785.69;5047293;28;20354;-56
2022/11/19 01:23:17;;;;;;;;;;;;;;;5.33;93.28;100789.44;5048984;28;19921;-55
2022/11/19 01:25:42;;;;;;;;;;;;;;;5.32;92.98;100790.41;5048037;28;19993;-56
2022/11/19 01:28:07;;;;;;;;;;;;;;;5.31;92.97;100795.81;5047609;28;19924;-56
2022/11/19 01:30:32;;;;;;;;;;;;;;;5.28;93.00;100789.84;5048780;28;20377;-56
2022/11/19 01:32:58;;;;;;;;;;;;;;;5.26;92.54;100797.06;5049297;28;19924;-55
2022/11/19 01:35:23;;;;;;;;;;;;;;;5.21;92.27;100796.66;5046854;28;19927;-54
2022/11/19 01:37:48;;;;;;;;;;;;;;;5.10;92.17;100803.81;5049088;28;19924;-54
2022/11/19 01:40:14;;;;;;;;;;;;;;;5.07;92.36;100802.28;5047371;28;20592;-55
2022/11/19 01:42:48;;;;;;;;;;;;;;;5.06;92.49;100810.31;5047898;28;20004;-56
2022/11/19 01:45:22;;;;;;;;;;;;;;;5.05;92.23;100809.50;5047191;28;20000;-54
2022/11/19 01:47:47;;;;;;;;;;;;;;;5.01;92.09;100813.38;5046951;28;19924;-54
2022/11/19 01:50:13;;;;;;;;;;;;;;;4.98;92.05;100819.72;5046759;28;19917;-55
2022/11/19 01:52:41;;;;;;;;;;;;;;;4.97;92.07;100822.50;5045310;28;19928;-56
2022/11/19 01:55:06;;;;;;;;;;;;;;;4.98;92.51;100821.53;5048150;28;19963;-55
2022/11/19 01:57:32;;;;;;;;;;;;;;;4.99;92.49;100828.47;5044874;28;19955;-56
2022/11/19 01:59:57;;;;;;;;;;;;;;;4.98;92.69;100830.25;5047648;28;19924;-56
2022/11/19 02:02:22;;;;;;;;;;;;;;;4.96;92.63;100826.09;5048182;28;19927;-53
2022/11/19 02:04:50;;;;;;;;;;;;;;;4.95;92.63;100827.06;5048320;28;19924;-55
2022/11/19 02:07:16;;;;;;;;;;;;;;;4.92;92.62;100832.59;5046915;28;19939;-56
2022/11/19 02:09:41;;;;;;;;;;;;;;;4.85;92.60;100824.38;5045562;28;20380;-54
2022/11/19 02:12:11;;;;;;;;;;;;;;;4.91;92.49;100836.16;5047393;28;19959;-56
2022/11/19 02:14:53;;;;;;;;;;;;;;;4.91;92.82;100833.53;5045954;28;19964;-55
2022/11/19 02:17:30;;;;;;;;;;;;;;;4.91;92.82;100836.16;5043050;28;20011;-55
2022/11/19 02:20:10;;;;;;;;;;;;;;;4.88;92.87;100842.53;5043912;28;19925;-55
2022/11/19 02:22:54;;;;;;;;;;;;;;;4.86;92.55;100844.47;5047513;28;19921;-52
2022/11/19 02:25:28;;;;;;;;;;;;;;;4.86;92.83;100828.69;5045986;28;19927;-53
2022/11/19 02:28:12;;;;;;;;;;;;;;;4.82;92.57;100839.63;5046881;28;19956;-56
2022/11/19 02:30:40;;;;;;;;;;;;;;;4.77;92.62;100834.75;5044296;28;19917;-55
2022/11/19 02:33:09;;;;;;;;;;;;;;;4.72;92.29;100841.38;5045934;28;19921;-53
2022/11/19 02:35:55;;;;;;;;;;;;;;;4.66;92.27;100837.50;5047152;28;19974;-55
2022/11/19 02:38:25;;;;;;;;;;;;;;;4.57;92.04;100846.16;5046274;28;19947;-55
2022/11/19 02:46:50;;;;;;;;;;;;;;;4.45;92.25;100853.31;5045032;28;19924;-55
2022/11/19 02:49:17;;;;;;;;;;;;;;;4.40;92.16;100850.25;5046135;28;20284;-54
2022/11/19 02:51:43;;;;;;;;;;;;;;;4.40;92.31;100857.28;5046134;28;19923;-55
2022/11/19 02:54:08;;;;;;;;;;;;;;;4.41;92.24;100851.91;5047856;28;19921;-54
2022/11/19 02:56:46;;;;;;;;;;;;;;;4.39;92.52;100864.34;5046875;28;20371;-55
2022/11/19 03:04:41;;;;;;;;;;;;;;;4.38;92.41;100862.69;5046139;28;20019;-55
2022/11/19 03:07:09;;;;;;;;;;;;;;;4.39;92.60;100871.41;5047578;28;20431;-55
2022/11/19 03:09:38;;;;;;;;;;;;;;;4.37;92.71;100865.44;5046802;28;19921;-55
2022/11/19 03:12:06;;;;;;;;;;;;;;;4.33;92.42;100860.41;5045035;28;20008;-56
2022/11/19 03:17:35;;;;;;;;;;;;;;;4.29;92.22;100868.69;5046063;28;20022;-55
2022/11/19 03:20:09;;;;;;;;;;;;;;;4.23;91.92;100874.47;5045827;28;19928;-55
2022/11/19 03:22:40;;;;;;;;;;;;;;;4.19;91.68;100868.66;5046514;28;19924;-56
2022/11/19 03:25:14;;;;;;;;;;;;;;;4.16;91.77;100873.34;5045399;28;20015;-56
2022/11/19 03:27:41;;;;;;;;;;;;;;;4.13;91.45;100869.16;5047591;28;20434;-56
2022/11/19 03:30:07;;;;;;;;;;;;;;;4.06;91.36;100869.81;5046485;28;20042;-55
2022/11/19 03:32:41;;;;;;;;;;;;;;;4.03;91.25;100879.59;5046057;28;19921;-56
2022/11/19 03:35:09;;;;;;;;;;;;;;;3.99;91.30;100882.59;5046881;28;20007;-55
2022/11/19 03:37:37;;;;;;;;;;;;;;;3.94;91.15;100883.00;5043653;28;20422;-53
2022/11/19 03:40:04;;;;;;;;;;;;;;;3.93;91.28;100878.69;5046564;28;19917;-55
2022/11/19 03:42:30;;;;;;;;;;;;;;;3.91;91.44;100875.38;5044626;28;20502;-54
2022/11/19 03:44:58;;;;;;;;;;;;;;;3.92;91.40;100876.19;5048842;28;19928;-56
2022/11/19 03:47:25;;;;;;;;;;;;;;;3.91;91.64;100875.38;5049019;28;20023;-54
2022/11/19 03:49:54;;;;;;;;;;;;;;;3.89;91.45;100879.91;5049349;28;19922;-51
2022/11/19 03:52:20;;;;;;;;;;;;;;;3.89;91.43;100881.72;5051058;28;19963;-55
2022/11/19 03:54:45;;;;;;;;;;;;;;;3.85;91.43;100880.31;5049142;28;20274;-56
2022/11/19 03:57:13;;;;;;;;;;;;;;;3.86;91.28;100885.44;5049922;28;20461;-54
2022/11/19 03:59:39;;;;;;;;;;;;;;;3.84;91.19;100886.53;5049654;28;19921;-55
2022/11/19 04:02:06;;;;;;;;;;;;;;;3.84;91.35;100886.53;5049598;28;20043;-55
2022/11/19 04:04:37;;;;;;;;;;;;;;;3.85;91.64;100888.19;5050062;28;20000;-55
2022/11/19 04:07:22;;;;;;;;;;;;;;;3.86;91.59;100892.47;5048766;28;19938;-55
2022/11/19 04:09:48;;;;;;;;;;;;;;;3.85;91.43;100896.91;5047355;28;19939;-55
2022/11/19 04:12:18;;;;;;;;;;;;;;;3.84;91.27;100897.03;5050430;28;19917;-56
2022/11/19 04:14:43;;;;;;;;;;;;;;;3.85;91.26;100898.69;5050162;28;19917;-57
2022/11/19 04:17:09;;;;;;;;;;;;;;;3.85;91.41;100906.56;5049797;28;19924;-55
2022/11/19 04:19:34;;;;;;;;;;;;;;;3.84;91.23;100905.75;5047835;28;19928;-55
2022/11/19 04:21:59;;;;;;;;;;;;;;;3.81;91.14;100899.91;5048939;28;19917;-55
2022/11/19 04:24:24;;;;;;;;;;;;;;;3.77;90.88;100907.19;5051365;28;19975;-56
2022/11/19 04:26:49;;;;;;;;;;;;;;;3.73;90.51;100911.00;5045228;28;20285;-56
2022/11/19 04:29:14;;;;;;;;;;;;;;;3.69;90.52;100913.06;5057288;28;19916;-55
2022/11/19 04:31:40;;;;;;;;;;;;;;;3.71;90.78;100919.00;5049499;28;20206;-56
2022/11/19 04:34:05;;;;;;;;;;;;;;;3.69;90.56;100923.56;5048133;28;19971;-54
2022/11/19 04:36:31;;;;;;;;;;;;;;;3.69;90.45;100927.97;5050636;28;19927;-55
2022/11/19 04:38:56;;;;;;;;;;;;;;;3.65;90.30;100926.56;5049607;28;19912;-56
2022/11/19 04:41:21;;;;;;;;;;;;;;;3.64;90.35;100924.91;5050814;28;19913;-55
2022/11/19 04:43:46;;;;;;;;;;;;;;;3.61;90.04;100930.41;5050429;28;20352;-55
2022/11/19 04:46:11;;;;;;;;;;;;;;;3.60;90.33;100929.56;5058574;28;19917;-54
2022/11/19 04:48:37;;;;;;;;;;;;;;;3.62;90.15;100929.44;5055805;28;19916;-55
2022/11/19 04:51:02;;;;;;;;;;;;;;;3.62;90.32;100932.06;5050527;28;20348;-54
2022/11/19 04:53:27;;;;;;;;;;;;;;;3.61;90.15;100935.66;5058433;28;19921;-53
2022/11/19 04:55:52;;;;;;;;;;;;;;;3.61;90.45;100938.28;5052142;28;19916;-54
2022/11/19 04:58:17;;;;;;;;;;;;;;;3.56;89.83;100937.81;5055519;28;19971;-53
2022/11/19 05:00:42;;;;;;;;;;;;;;;3.51;89.74;100946.06;5050697;28;20183;-54
2022/11/19 05:03:08;;;;;;;;;;;;;;;3.51;89.88;100956.56;5050661;28;19966;-54
2022/11/19 05:05:33;;;;;;;;;;;;;;;3.50;89.90;100957.53;5052815;28;19960;-54
2022/11/19 05:07:58;;;;;;;;;;;;;;;3.49;89.78;100957.66;5052083;28;20384;-55
2022/11/19 05:10:23;;;;;;;;;;;;;;;3.48;89.76;100961.22;5054966;28;19948;-53
2022/11/19 05:12:48;;;;;;;;;;;;;;;3.50;89.63;100965.41;5050656;28;19916;-55
2022/11/19 05:15:14;;;;;;;;;;;;;;;3.53;89.63;100974.81;5046467;28;19927;-54
2022/11/19 05:17:39;;;;;;;;;;;;;;;3.51;89.63;100976.75;5049799;28;19917;-57
2022/11/19 05:20:04;;;;;;;;;;;;;;;3.51;89.53;100968.88;5050359;28;19913;-54
2022/11/19 05:22:29;;;;;;;;;;;;;;;3.50;89.63;100969.81;5049245;28;19920;-52
2022/11/19 05:24:54;;;;;;;;;;;;;;;3.49;89.51;100969.00;5048674;28;20399;-55
2022/11/19 05:27:20;;;;;;;;;;;;;;;3.46;89.56;100982.31;5049923;28;19912;-54
2022/11/19 05:29:45;;;;;;;;;;;;;;;3.43;89.20;100979.94;5050180;28;19913;-56
2022/11/19 05:32:10;;;;;;;;;;;;;;;3.39;89.10;100981.16;5050502;28;20012;-53
2022/11/19 05:34:35;;;;;;;;;;;;;;;3.37;88.91;100983.06;5055490;28;19924;-55
2022/11/19 05:37:00;;;;;;;;;;;;;;;3.34;88.81;100975.44;5049855;28;20015;-55
2022/11/19 05:39:25;;;;;;;;;;;;;;;3.30;88.29;100972.22;5052649;28;20553;-53
2022/11/19 05:41:51;;;;;;;;;;;;;;;3.25;88.53;100982.25;5048853;28;19971;-54
2022/11/19 05:44:16;;;;;;;;;;;;;;;3.23;88.48;100983.31;5046088;28;20385;-52
2022/11/19 05:46:41;;;;;;;;;;;;;;;3.20;88.19;100987.03;5045508;28;19931;-51
2022/11/19 05:49:06;;;;;;;;;;;;;;;3.19;88.65;100985.34;5049206;28;19924;-57
2022/11/19 05:51:32;;;;;;;;;;;;;;;3.20;88.59;100997.53;5055102;28;20445;-55
2022/11/19 05:53:57;;;;;;;;;;;;;;;3.21;88.64;100999.19;5050992;28;19929;-55
2022/11/19 05:56:22;;;;;;;;;;;;;;;3.22;88.59;101006.09;5043554;28;19921;-56
2022/11/19 05:58:47;;;;;;;;;;;;;;;3.19;88.57;101002.88;5041616;28;20395;-55
2022/11/19 06:01:13;;;;;;;;;;;;;;;3.17;88.38;101002.97;5047666;28;19923;-55
2022/11/19 06:03:39;;;;;;;;;;;;;;;3.16;88.44;101003.94;5048271;28;19964;-55
2022/11/19 06:06:04;;;;;;;;;;;;;;;3.13;88.56;101004.19;5045372;28;20458;-55
2022/11/19 06:08:30;;;;;;;;;;;;;;;3.12;88.41;101007.75;5047502;28;19916;-54
2022/11/19 06:10:55;;;;;;;;;;;;;;;3.09;88.43;101000.97;5052728;28;20297;-54
2022/11/19 06:13:20;;;;;;;;;;;;;;;3.05;88.27;101007.41;5042193;28;19925;-55
2022/11/19 06:15:45;;;;;;;;;;;;;;;3.03;88.20;101019.81;5044704;28;19956;-53
2022/11/19 06:18:11;;;;;;;;;;;;;;;3.02;88.08;101015.50;5043215;28;19932;-54
2022/11/19 06:20:36;;;;;;;;;;;;;;;3.00;87.94;101019.19;5044559;28;20334;-54
2022/11/19 06:23:01;;;;;;;;;;;;;;;2.98;88.01;101021.09;5044550;28;19929;-52
2022/11/19 06:25:26;;;;;;;;;;;;;;;2.97;87.89;101029.94;5044547;28;19924;-53
2022/11/19 06:27:51;;;;;;;;;;;;;;;2.96;88.01;101031.72;5044827;28;20494;-55
2022/11/19 06:30:16;;;;;;;;;;;;;;;2.96;87.92;101034.34;5046731;28;20015;-56
2022/11/19 06:32:42;;;;;;;;;;;;;;;2.92;87.70;101043.41;5048819;28;20469;-55
2022/11/19 06:35:07;;;;;;;;;;;;;;;2.91;87.75;101046.16;5055210;28;20311;-55
2022/11/19 06:37:33;;;;;;;;;;;;;;;2.88;87.71;101049.81;5052986;28;19917;-53
2022/11/19 06:39:58;;;;;;;;;;;;;;;2.89;88.01;101048.00;5041152;28;19960;-54
2022/11/19 06:42:35;;;;;;;;;;;;;;;2.91;87.95;101061.88;5047714;28;19925;-56
2022/11/19 06:45:01;;;;;;;;;;;;;;;2.91;88.25;101060.09;5050797;28;20003;-51
2022/11/19 06:47:28;;;;;;;;;;;;;;;2.91;88.11;101052.22;5040843;28;20008;-53
2022/11/19 06:49:53;;;;;;;;;;;;;;;2.92;88.01;101060.94;5047979;28;20500;-55
2022/11/19 06:52:18;;;;;;;;;;;;;;;2.92;87.99;101058.31;5049054;28;20051;-55
2022/11/19 06:54:43;;;;;;;;;;;;;;;2.92;88.02;101058.31;5047979;28;19962;-56
2022/11/19 06:57:09;;;;;;;;;;;;;;;2.88;87.77;101062.91;5045503;28;19956;-55
2022/11/19 06:59:34;;;;;;;;;;;;;;;2.89;87.86;101064.63;5043352;28;19962;-55
2022/11/19 07:01:59;;;;;;;;;;;;;;;2.88;87.72;101059.47;5043392;28;19963;-56
2022/11/19 07:04:24;;;;;;;;;;;;;;;2.85;87.85;101063.16;5049317;28;19917;-55
2022/11/19 07:06:49;;;;;;;;;;;;;;;2.85;87.68;101068.41;5044707;28;20404;-55
2022/11/19 07:09:14;;;;;;;;;;;;;;;2.84;87.83;101066.72;5045514;28;20000;-55
2022/11/19 07:11:40;;;;;;;;;;;;;;;2.82;87.66;101070.41;5048156;28;19913;-56
2022/11/19 07:14:05;;;;;;;;;;;;;;;2.82;87.66;101073.03;5048977;28;19924;-55
2022/11/19 07:16:32;;;;;;;;;;;;;;;2.77;87.79;101076.84;5047006;28;20299;-56
2022/11/19 07:18:58;;;;;;;;;;;;;;;2.77;87.78;101081.25;5057569;28;19952;-54
2022/11/19 07:21:23;;;;;;;;;;;;;;;2.66;87.20;101079.44;5056430;28;19979;-55
2022/11/19 07:23:48;;;;;;;;;;;;;;;2.65;87.26;101075.16;5050504;28;20394;-56
2022/11/19 07:26:14;;;;;;;;;;;;;;;2.66;87.32;101089.94;5056372;28;19944;-54
2022/11/19 07:28:39;;;;;;;;;;;;;;;2.70;87.23;101085.28;5059277;28;20369;-55
2022/11/19 07:31:05;;;;;;;;;;;;;;;2.60;87.04;101092.16;5052199;28;19916;-56
2022/11/19 07:33:30;;;;;;;;;;;;;;;2.58;87.33;101097.50;5053987;28;19928;-54
2022/11/19 07:35:55;;;;;;;;;;;;;;;2.60;87.37;101105.25;5052485;28;19913;-54
2022/11/19 07:38:20;;;;;;;;;;;;;;;2.59;87.22;101099.19;5054800;28;19923;-56
2022/11/19 07:40:52;;;;;;;;;;;;;;;2.60;87.13;101108.75;5062890;28;20007;-54
2022/11/19 07:43:17;;;;;;;;;;;;;;;2.60;87.09;101107.88;5054755;28;19924;-55
2022/11/19 07:45:42;;;;;;;;;;;;;;;2.52;86.79;101105.81;5059208;28;19913;-54
2022/11/19 07:48:08;;;;;;;;;;;;;;;2.48;86.82;101114.88;5054949;28;19919;-55
2022/11/19 07:50:33;;;;;;;;;;;;;;;2.48;86.80;101107.00;5054150;28;19913;-55
2022/11/19 07:52:58;;;;;;;;;;;;;;;2.54;86.87;101116.19;5054999;28;19916;-55
2022/11/19 07:55:24;;;;;;;;;;;;;;;2.52;86.81;101121.56;5055960;28;20015;-55
2022/11/19 07:57:51;;;;;;;;;;;;;;;2.53;86.92;101125.00;5054806;28;19971;-52
2022/11/19 08:00:16;;;;;;;;;;;;;;;2.55;86.97;101123.13;5049866;28;19931;-54
2022/11/19 08:02:42;;;;;;;;;;;;;;;2.55;86.78;101116.09;5059136;28;19919;-54
2022/11/19 08:05:07;;;;;;;;;;;;;;;2.57;86.86;101119.44;5048273;28;19978;-54
2022/11/19 08:07:36;;;;;;;;;;;;;;;2.60;87.12;101111.38;5063538;28;21349;-54
2022/11/19 08:10:01;;;;;;;;;;;;;;;2.56;86.82;101127.41;5054348;28;19912;-53
2022/11/19 08:12:27;;;;;;;;;;;;;;;2.56;86.92;101136.09;5055192;28;20563;-52
2022/11/19 08:14:52;;;;;;;;;;;;;;;2.54;86.66;101126.69;5057446;28;19913;-54
2022/11/19 08:20:02;;;;;;;;;;;;;;;2.59;86.86;101145.53;5054040;28;19971;-53
2022/11/19 08:22:28;;;;;;;;;;;;;;;2.59;86.91;101145.53;5050626;28;19952;-53
2022/11/19 08:24:53;;;;;;;;;;;;;;;2.59;86.96;101141.13;5053362;28;19952;-53
2022/11/19 08:27:18;;;;;;;;;;;;;;;2.59;86.55;101148.16;5058776;28;19924;-55
2022/11/19 08:29:43;;;;;;;;;;;;;;;2.59;86.72;101151.63;5050348;28;19986;-56
2022/11/19 08:32:08;;;;;;;;;;;;;;;2.61;86.93;101146.28;5049948;28;19956;-55
2022/11/19 08:34:34;;;;;;;;;;;;;;;2.62;86.77;101143.56;5048619;28;20360;-55
2022/11/19 08:36:59;;;;;;;;;;;;;;;2.62;86.66;101154.03;5050564;28;19916;-54
2022/11/19 08:39:24;;;;;;;;;;;;;;;2.65;86.75;101152.97;5043414;28;19927;-56
2022/11/19 08:44:33;;;;;;;;;;;;;;;2.70;86.58;101162.19;5052037;28;19928;-54
2022/11/19 08:46:58;;;;;;;;;;;;;;;2.72;86.67;101157.66;5046642;28;20410;-55
2022/11/19 08:49:23;;;;;;;;;;;;;;;2.75;86.50;101159.22;5057280;28;19917;-54
2022/11/19 08:51:48;;;;;;;;;;;;;;;2.74;86.37;101161.00;5051346;28;19959;-54
2022/11/19 08:54:14;;;;;;;;;;;;;;;2.71;86.17;101160.38;5050304;28;19935;-54
2022/11/19 08:56:39;;;;;;;;;;;;;;;2.73;86.13;101168.97;5047535;28;19924;-55
2022/11/19 08:59:04;;;;;;;;;;;;;;;2.74;85.90;101176.72;5047694;28;19917;-53
2022/11/19 09:01:30;;;;;;;;;;;;;;;2.76;86.02;101169.59;5050059;28;19913;-55
2022/11/19 09:03:55;;;;;;;;;;;;;;;2.80;86.15;101170.19;5050011;28;19943;-55
2022/11/19 09:06:20;;;;;;;;;;;;;;;2.83;86.17;101177.00;5055615;28;20035;-54
2022/11/19 09:08:45;;;;;;;;;;;;;;;2.85;85.87;101177.72;5052567;28;19913;-55
2022/11/19 09:11:12;;;;;;;;;;;;;;;2.86;85.73;101180.22;5049118;28;19955;-53
2022/11/19 09:13:38;;;;;;;;;;;;;;;2.91;85.88;101180.75;5055534;28;19917;-54
2022/11/19 09:16:03;;;;;;;;;;;;;;;2.89;85.47;101174.78;5048858;28;19932;-56
2022/11/19 09:18:30;;;;;;;;;;;;;;;2.88;85.17;101180.13;5049768;28;19931;-56
2022/11/19 09:20:55;;;;;;;;;;;;;;;2.87;85.04;101188.94;5050629;28;19916;-55
2022/11/19 09:23:21;;;;;;;;;;;;;;;2.88;84.92;101182.72;5050019;28;20483;-55
2022/11/19 09:26:03;;;;;;;;;;;;;;;2.86;84.83;101180.22;5046998;28;19921;-55
2022/11/19 09:28:29;;;;;;;;;;;;;;;2.80;84.32;101186.75;5057173;28;19931;-52
2022/11/19 09:31:01;;;;;;;;;;;;;;;2.78;84.35;101188.66;5050352;28;19913;-54
2022/11/19 09:33:28;;;;;;;;;;;;;;;2.78;84.52;101182.59;5050206;28;19920;-54
2022/11/19 09:35:53;;;;;;;;;;;;;;;2.77;84.49;101194.84;5049068;28;19916;-54
2022/11/19 09:38:19;;;;;;;;;;;;;;;2.78;84.21;101199.16;5051388;28;19919;-55
2022/11/19 09:40:49;;;;;;;;;;;;;;;2.80;84.37;101197.25;5048074;28;19924;-55
2022/11/19 09:43:27;;;;;;;;;;;;;;;2.79;84.30;101205.22;5050853;28;20003;-52
2022/11/19 09:45:59;;;;;;;;;;;;;;;2.79;84.19;101208.69;5046986;28;20323;-56
2022/11/19 09:48:28;;;;;;;;;;;;;;;2.78;83.93;101220.13;5044323;28;19959;-56
2022/11/19 09:51:01;;;;;;;;;;;;;;;2.75;83.58;101219.53;5045813;28;20414;-52
2022/11/19 09:53:30;;;;;;;;;;;;;;;2.73;83.42;101222.25;5050253;28;19943;-56
2022/11/19 09:55:56;;;;;;;;;;;;;;;2.72;83.30;101231.06;5045277;28;19923;-55
2022/11/19 09:58:26;;;;;;;;;;;;;;;2.72;83.24;101236.31;5050597;28;19924;-54
2022/11/19 10:00:52;;;;;;;;;;;;;;;2.73;83.16;101232.75;5047878;28;20405;-55
2022/11/19 10:03:19;;;;;;;;;;;;;;;2.71;83.19;101232.03;5050661;28;20372;-56
2022/11/19 10:05:58;;;;;;;;;;;;;;;2.67;82.99;101248.94;5047987;28;19951;-55
2022/11/19 10:08:29;;;;;;;;;;;;;;;2.64;82.94;101243.91;5044642;28;20015;-53
2022/11/19 10:11:13;;;;;;;;;;;;;;;2.60;82.92;101250.31;5044712;28;20501;-55
2022/11/19 10:13:57;;;;;;;;;;;;;;;2.58;82.56;101246.94;5049353;28;19921;-57
2022/11/19 10:16:32;;;;;;;;;;;;;;;2.58;82.40;101248.72;5042085;28;19964;-55
2022/11/19 10:19:13;;;;;;;;;;;;;;;2.59;82.62;101248.63;5047821;28;19916;-55
2022/11/19 10:21:45;;;;;;;;;;;;;;;2.58;82.66;101249.56;5057419;28;19974;-55
2022/11/19 10:24:16;;;;;;;;;;;;;;;2.59;82.55;101248.63;5047834;28;19912;-52
2022/11/19 10:26:43;;;;;;;;;;;;;;;2.59;82.55;101251.22;5048520;28;20399;-54
2022/11/19 10:29:13;;;;;;;;;;;;;;;2.62;82.72;101260.69;5053161;28;19916;-53
2022/11/19 10:31:42;;;;;;;;;;;;;;;2.62;82.64;101258.91;5042299;28;19913;-51
2022/11/19 10:34:07;;;;;;;;;;;;;;;2.55;82.42;101244.53;5045036;28;19921;-55
2022/11/19 10:36:32;;;;;;;;;;;;;;;2.58;82.16;101265.28;5047941;28;19917;-55
2022/11/19 10:39:06;;;;;;;;;;;;;;;2.57;82.06;101263.63;5048914;28;19917;-53
2022/11/19 10:41:34;;;;;;;;;;;;;;;2.56;82.19;101259.31;5044493;28;19917;-54
2022/11/19 10:44:08;;;;;;;;;;;;;;;2.55;82.14;101262.06;5048099;28;19974;-56
2022/11/19 10:46:33;;;;;;;;;;;;;;;2.55;82.46;101260.28;5047096;28;19913;-54
2022/11/19 10:49:00;;;;;;;;;;;;;;;2.54;82.21;101249.88;5044991;28;19935;-54
2022/11/19 10:51:36;;;;;;;;;;;;;;;2.51;82.34;101250.94;5047434;28;19921;-56
2022/11/19 10:54:03;;;;;;;;;;;;;;;2.53;82.30;101259.53;5052058;28;19917;-53
2022/11/19 10:56:38;;;;;;;;;;;;;;;2.54;82.42;101258.59;5047218;28;20363;-55
2022/11/19 10:59:24;;;;;;;;;;;;;;;2.52;82.35;101260.50;5046538;28;19978;-55
2022/11/19 11:01:58;;;;;;;;;;;;;;;2.49;82.10;101263.31;5043011;28;19965;-53
2022/11/19 11:04:25;;;;;;;;;;;;;;;2.47;81.97;101255.56;5040086;28;19921;-54
2022/11/19 11:06:51;;;;;;;;;;;;;;;2.47;81.67;101259.97;5053126;28;20392;-55
2022/11/19 11:09:35;;;;;;;;;;;;;;;2.46;81.78;101255.69;5044872;28;19924;-55
2022/11/19 11:14:51;;;;;;;;;;;;;;;2.45;81.87;101259.25;5046431;28;19935;-55
2022/11/19 11:17:24;;;;;;;;;;;;;;;2.38;81.25;101260.63;5047459;28;20423;-55
2022/11/19 11:19:56;;;;;;;;;;;;;;;2.34;81.45;101261.81;5047556;28;20017;-56
2022/11/19 11:22:22;;;;;;;;;;;;;;;2.33;81.58;101250.47;5048580;28;20234;-54
2022/11/19 11:24:47;;;;;;;;;;;;;;;2.34;81.50;101259.19;5047188;28;20364;-57
2022/11/19 11:27:32;;;;;;;;;;;;;;;2.35;81.57;101253.00;5050685;28;20372;-55
2022/11/19 11:30:04;;;;;;;;;;;;;;;2.38;81.59;101239.66;5043540;28;19948;-55
2022/11/19 11:32:30;;;;;;;;;;;;;;;2.40;82.04;101240.41;5048702;28;20423;-55
2022/11/19 11:34:55;;;;;;;;;;;;;;;2.45;81.94;101243.53;5042355;28;19921;-55
2022/11/19 11:37:20;;;;;;;;;;;;;;;2.44;81.79;101236.59;5042562;28;19927;-55
2022/11/19 11:39:48;;;;;;;;;;;;;;;2.39;81.46;101241.34;5046373;28;19976;-55
2022/11/19 11:42:17;;;;;;;;;;;;;;;2.28;81.01;101246.47;5047045;28;19919;-53
2022/11/19 11:44:51;;;;;;;;;;;;;;;2.22;81.03;101239.91;5049121;28;19920;-53
2022/11/19 11:47:20;;;;;;;;;;;;;;;2.22;81.29;101244.28;5053101;28;19919;-54
2022/11/19 11:49:50;;;;;;;;;;;;;;;2.21;81.39;101246.06;5041791;28;19913;-53
2022/11/19 11:52:18;;;;;;;;;;;;;;;2.22;81.29;101239.06;5044417;28;20343;-54
2022/11/19 11:54:55;;;;;;;;;;;;;;;2.24;81.44;101240.63;5053063;28;19924;-53
2022/11/19 11:57:22;;;;;;;;;;;;;;;2.25;81.58;101231.81;5047918;28;20004;-55
2022/11/19 11:59:47;;;;;;;;;;;;;;;2.29;81.62;101242.91;5054288;28;19998;-54
2022/11/19 12:02:32;;;;;;;;;;;;;;;2.31;81.38;101236.63;5048486;28;20391;-54
2022/11/19 12:04:59;;;;;;;;;;;;;;;2.30;81.10;101236.72;5049070;28;19917;-55
2022/11/19 12:07:24;;;;;;;;;;;;;;;2.31;81.02;101235.78;5055620;28;19913;-54
2022/11/19 12:10:07;;;;;;;;;;;;;;;2.26;80.84;101238.72;5048665;28;19924;-55
2022/11/19 12:12:40;;;;;;;;;;;;;;;2.25;80.46;101231.81;5047464;28;20011;-54
2022/11/19 12:15:15;;;;;;;;;;;;;;;2.23;80.72;101240.72;5057590;28;19917;-55
2022/11/19 12:17:46;;;;;;;;;;;;;;;2.22;80.73;101236.44;5050543;28;19913;-56
2022/11/19 12:20:17;;;;;;;;;;;;;;;2.26;80.85;101240.50;5043376;28;20415;-55
2022/11/19 12:22:56;;;;;;;;;;;;;;;2.25;80.61;101241.47;5048242;28;19917;-56
2022/11/19 12:25:22;;;;;;;;;;;;;;;2.24;80.67;101242.41;5046890;28;20522;-53
2022/11/19 12:27:53;;;;;;;;;;;;;;;2.21;80.50;101240.00;5060710;28;19938;-55
2022/11/19 12:30:20;;;;;;;;;;;;;;;2.22;80.58;101250.38;5045519;28;19913;-54
2022/11/19 12:32:45;;;;;;;;;;;;;;;2.26;80.86;101243.13;5048366;28;19950;-55
2022/11/19 12:35:24;;;;;;;;;;;;;;;2.27;80.68;101244.81;5050411;28;20653;-54
2022/11/19 12:38:08;;;;;;;;;;;;;;;2.27;80.55;101247.44;5056429;28;20396;-55
2022/11/19 12:40:39;;;;;;;;;;;;;;;2.25;80.56;101247.53;5057788;28;20412;-55
2022/11/19 12:43:19;;;;;;;;;;;;;;;2.28;80.63;101257.81;5056458;28;19913;-54
2022/11/19 12:45:56;;;;;;;;;;;;;;;2.34;80.78;101246.91;5047224;28;19919;-55
2022/11/19 12:48:36;;;;;;;;;;;;;;;2.37;80.68;101248.47;5047514;28;19917;-55
2022/11/19 12:51:16;;;;;;;;;;;;;;;2.41;80.81;101247.31;5050249;28;20269;-54
2022/11/19 12:53:44;;;;;;;;;;;;;;;2.44;80.92;101250.56;5050720;28;20304;-54
2022/11/19 12:56:15;;;;;;;;;;;;;;;2.46;80.83;101242.56;5053155;28;19932;-54
2022/11/19 12:58:43;;;;;;;;;;;;;;;2.49;80.68;101232.72;5047407;28;19917;-55
2022/11/19 13:01:12;;;;;;;;;;;;;;;2.49;80.50;101240.56;5047008;28;19920;-55
2022/11/19 13:03:56;;;;;;;;;;;;;;;2.49;80.56;101235.34;5049469;28;20395;-54
2022/11/19 13:06:24;;;;;;;;;;;;;;;2.49;80.45;101235.34;5050070;28;19916;-54
2022/11/19 13:08:53;;;;;;;;;;;;;;;2.53;80.27;101246.44;5050248;28;20045;-55
2022/11/19 13:11:35;;;;;;;;;;;;;;;2.54;80.02;101244.66;5053641;28;19923;-55
2022/11/19 13:14:13;;;;;;;;;;;;;;;2.59;80.08;101240.75;5044797;28;19921;-54
2022/11/19 13:16:40;;;;;;;;;;;;;;;2.61;79.80;101238.03;5045532;28;19944;-55